Borlange, Sweden

10:25 AM CET on December 25, 2014 (GMT +0100)
Strandbro | Change Station
CLOSE
Current Station
Personal Weather Station
Location: Borlänge, DALARNA
Elevation: 459 ft
Nearby Weather Stations

Elev 459 ft 60.42 °N, 15.44 °E | Updated 22 seconds ago

Clear
Clear
9.3 °F
Feels Like 2 °F
N
3.8
Wind Variable Wind from NW
Gusts 5.4 mph

Today
High -- | Low -- °F
--% Chance of Precip.
Yesterday
High -- | Low -- °F
Precip. -- in
9:05 AM 2:50 PM
Waxing Crescent, 15% visible
Pressure 30.01 in
Visibility 6.2 miles
Clouds
Windchill 2 °F
Dew Point 6 °F
Humidity 87%
Rainfall 0.00 in
Snow Depth Not available.
UV Not available.
Pollen Not available.
Air Quality Not available.
Flu Activity Not available.
METAR ESSD 250920Z AUTO 25008KT 9999 NCD M13/M15 Q1016

More Conditions Fewer Conditions

Pressure 30.01 in
Visibility 6.2 miles
Clouds
Windchill 2 °F
Dew Point 6 °F
Humidity 87%
Rainfall 0.00 in
Snow Depth Not available.
UV Not available.
Pollen Not available.
Air Quality Not available.
Flu Activity Not available.
METAR ESSD 250920Z AUTO 25008KT 9999 NCD M13/M15 Q1016

More Conditions Fewer Conditions

10-Day Weather Forecast

Almanac

Astronomy

Dec. 25, 2014 Rise Set
Actual Time
Civil Twilight
Nautical Twilight
Astronomical Twilight
Moon
Length of Visible Light
Length of Day
Tomorrow will be .
, % of the Moon is Illuminated

Today's Extremes

Country Highs Country Lows

Community

WunderPhotos

Upload Photos

1,780,252 photos uploaded!

WunderBlogs® & News

Nearby

Air Quality

  Air Quality AQ Index Pollutant
Not available.

Snow Depth

Station Depth Elevation

Earthquake Activity

City Distance Mag. Time & Date
Minimum magnitude displayed is 2.5.

Coastal Water Temperatures

Place Temperature

Nearby Weather Stations